sensor_id;sensor_type;location;lat;lon;timestamp;pressure;altitude;pressure_sealevel;temperature;humidity
27705;BME280;15109;50.992;6.918;2022-09-09T00:01:04;100243.94;;;18.12;100.00
27705;BME280;15109;50.992;6.918;2022-09-09T00:04:34;100224.56;;;18.12;100.00
27705;BME280;15109;50.992;6.918;2022-09-09T00:07:58;100225.06;;;18.09;100.00
27705;BME280;15109;50.992;6.918;2022-09-09T00:11:32;100211.66;;;18.01;100.00
27705;BME280;15109;50.992;6.918;2022-09-09T00:15:07;100209.84;;;17.95;100.00
27705;BME280;15109;50.992;6.918;2022-09-09T00:22:19;100202.56;;;17.89;100.00
27705;BME280;15109;50.992;6.918;2022-09-09T00:25:54;100205.34;;;17.78;100.00
27705;BME280;15109;50.992;6.918;2022-09-09T00:32:42;100202.69;;;17.83;100.00
27705;BME280;15109;50.992;6.918;2022-09-09T00:36:10;100204.53;;;17.77;100.00
27705;BME280;15109;50.992;6.918;2022-09-09T00:39:42;100220.75;;;17.74;100.00
27705;BME280;15109;50.992;6.918;2022-09-09T00:43:29;100215.44;;;17.84;100.00
27705;BME280;15109;50.992;6.918;2022-09-09T00:50:57;100211.16;;;17.76;100.00
27705;BME280;15109;50.992;6.918;2022-09-09T00:54:45;100200.31;;;17.75;100.00
27705;BME280;15109;50.992;6.918;2022-09-09T00:58:09;100209.69;;;17.85;100.00
27705;BME280;15109;50.992;6.918;2022-09-09T01:01:30;100208.22;;;17.83;100.00
27705;BME280;15109;50.992;6.918;2022-09-09T01:04:52;100208.97;;;17.78;100.00
27705;BME280;15109;50.992;6.918;2022-09-09T01:12:25;100218.44;;;17.82;100.00
27705;BME280;15109;50.992;6.918;2022-09-09T01:15:50;100218.72;;;17.81;100.00
27705;BME280;15109;50.992;6.918;2022-09-09T01:19:20;100219.28;;;17.83;100.00
27705;BME280;15109;50.992;6.918;2022-09-09T01:26:42;100214.41;;;17.73;100.00
27705;BME280;15109;50.992;6.918;2022-09-09T01:30:14;100219.34;;;17.71;100.00
27705;BME280;15109;50.992;6.918;2022-09-09T01:33:37;100225.03;;;17.64;100.00
27705;BME280;15109;50.992;6.918;2022-09-09T01:37:10;100216.72;;;17.64;100.00
27705;BME280;15109;50.992;6.918;2022-09-09T01:40:33;100221.50;;;17.57;100.00
27705;BME280;15109;50.992;6.918;2022-09-09T01:43:55;100215.78;;;17.59;100.00
27705;BME280;15109;50.992;6.918;2022-09-09T01:47:18;100225.34;;;17.56;100.00
27705;BME280;15109;50.992;6.918;2022-09-09T01:51:09;100228.97;;;17.57;100.00
27705;BME280;15109;50.992;6.918;2022-09-09T01:54:32;100228.13;;;17.56;100.00
27705;BME280;15109;50.992;6.918;2022-09-09T02:08:57;100225.59;;;17.66;100.00
27705;BME280;15109;50.992;6.918;2022-09-09T02:12:21;100228.72;;;17.70;100.00
27705;BME280;15109;50.992;6.918;2022-09-09T02:16:02;100217.75;;;17.75;100.00
27705;BME280;15109;50.992;6.918;2022-09-09T02:19:31;100217.19;;;17.73;100.00
27705;BME280;15109;50.992;6.918;2022-09-09T02:23:12;100220.53;;;17.75;100.00
27705;BME280;15109;50.992;6.918;2022-09-09T02:26:40;100222.09;;;17.71;100.00
27705;BME280;15109;50.992;6.918;2022-09-09T02:30:04;100219.94;;;17.73;100.00
27705;BME280;15109;50.992;6.918;2022-09-09T02:33:45;100221.72;;;17.79;100.00
27705;BME280;15109;50.992;6.918;2022-09-09T02:37:09;100215.59;;;17.77;100.00
27705;BME280;15109;50.992;6.918;2022-09-09T02:40:32;100215.22;;;17.74;100.00
27705;BME280;15109;50.992;6.918;2022-09-09T02:43:57;100222.94;;;17.72;100.00
27705;BME280;15109;50.992;6.918;2022-09-09T02:47:38;100215.72;;;17.71;100.00
27705;BME280;15109;50.992;6.918;2022-09-09T02:51:17;100211.53;;;17.68;100.00
27705;BME280;15109;50.992;6.918;2022-09-09T02:54:39;100207.09;;;17.67;100.00
27705;BME280;15109;50.992;6.918;2022-09-09T02:58:07;100209.97;;;17.60;100.00
27705;BME280;15109;50.992;6.918;2022-09-09T03:01:30;100209.34;;;17.70;100.00
27705;BME280;15109;50.992;6.918;2022-09-09T03:04:53;100211.28;;;17.69;100.00
27705;BME280;15109;50.992;6.918;2022-09-09T03:08:15;100207.78;;;17.74;100.00
27705;BME280;15109;50.992;6.918;2022-09-09T03:11:38;100196.53;;;17.64;100.00
27705;BME280;15109;50.992;6.918;2022-09-09T03:15:00;100208.91;;;17.61;100.00
27705;BME280;15109;50.992;6.918;2022-09-09T03:18:21;100202.53;;;17.61;100.00
27705;BME280;15109;50.992;6.918;2022-09-09T03:21:46;100205.66;;;17.64;100.00
27705;BME280;15109;50.992;6.918;2022-09-09T03:25:08;100206.75;;;17.63;100.00
27705;BME280;15109;50.992;6.918;2022-09-09T03:28:30;100193.66;;;17.59;100.00
27705;BME280;15109;50.992;6.918;2022-09-09T03:31:53;100199.66;;;17.56;100.00
27705;BME280;15109;50.992;6.918;2022-09-09T03:35:15;100196.06;;;17.55;100.00
27705;BME280;15109;50.992;6.918;2022-09-09T03:38:37;100201.13;;;17.58;100.00
27705;BME280;15109;50.992;6.918;2022-09-09T03:41:59;100194.75;;;17.58;100.00
27705;BME280;15109;50.992;6.918;2022-09-09T03:45:23;100195.09;;;17.61;100.00
27705;BME280;15109;50.992;6.918;2022-09-09T03:48:44;100204.00;;;17.63;100.00
27705;BME280;15109;50.992;6.918;2022-09-09T03:52:05;100203.38;;;17.61;100.00
27705;BME280;15109;50.992;6.918;2022-09-09T03:55:26;100206.00;;;17.56;100.00
27705;BME280;15109;50.992;6.918;2022-09-09T03:58:48;100207.09;;;17.55;100.00
27705;BME280;15109;50.992;6.918;2022-09-09T04:02:10;100204.47;;;17.60;100.00
27705;BME280;15109;50.992;6.918;2022-09-09T04:05:31;100210.81;;;17.61;100.00
27705;BME280;15109;50.992;6.918;2022-09-09T04:08:54;100202.06;;;17.64;100.00
27705;BME280;15109;50.992;6.918;2022-09-09T04:12:19;100207.09;;;17.67;100.00
27705;BME280;15109;50.992;6.918;2022-09-09T04:15:40;100197.13;;;17.66;100.00
27705;BME280;15109;50.992;6.918;2022-09-09T04:19:02;100196.38;;;17.71;100.00
27705;BME280;15109;50.992;6.918;2022-09-09T04:22:25;100200.50;;;17.68;100.00
27705;BME280;15109;50.992;6.918;2022-09-09T04:25:48;100200.63;;;17.61;100.00
27705;BME280;15109;50.992;6.918;2022-09-09T04:29:10;100200.38;;;17.63;100.00
27705;BME280;15109;50.992;6.918;2022-09-09T04:32:32;100206.41;;;17.60;100.00
27705;BME280;15109;50.992;6.918;2022-09-09T04:35:54;100204.91;;;17.57;100.00
27705;BME280;15109;50.992;6.918;2022-09-09T04:39:16;100203.16;;;17.51;100.00
27705;BME280;15109;50.992;6.918;2022-09-09T04:42:39;100214.56;;;17.55;100.00
27705;BME280;15109;50.992;6.918;2022-09-09T04:46:00;100207.09;;;17.55;100.00
27705;BME280;15109;50.992;6.918;2022-09-09T04:49:21;100215.03;;;17.52;100.00
27705;BME280;15109;50.992;6.918;2022-09-09T04:52:42;100214.53;;;17.66;100.00
27705;BME280;15109;50.992;6.918;2022-09-09T04:56:12;100216.34;;;17.61;100.00
27705;BME280;15109;50.992;6.918;2022-09-09T04:59:40;100206.63;;;17.58;100.00
27705;BME280;15109;50.992;6.918;2022-09-09T05:03:05;100208.91;;;17.61;100.00
27705;BME280;15109;50.992;6.918;2022-09-09T05:06:29;100199.66;;;17.56;100.00
27705;BME280;15109;50.992;6.918;2022-09-09T05:09:55;100214.69;;;17.60;100.00
27705;BME280;15109;50.992;6.918;2022-09-09T05:13:19;100212.28;;;17.63;100.00
27705;BME280;15109;50.992;6.918;2022-09-09T05:16:41;100206.00;;;17.68;100.00
27705;BME280;15109;50.992;6.918;2022-09-09T05:20:06;100204.66;;;17.71;100.00
27705;BME280;15109;50.992;6.918;2022-09-09T05:23:27;100202.13;;;17.69;100.00
27705;BME280;15109;50.992;6.918;2022-09-09T05:26:49;100207.66;;;17.69;100.00
27705;BME280;15109;50.992;6.918;2022-09-09T05:30:10;100207.44;;;17.71;100.00
27705;BME280;15109;50.992;6.918;2022-09-09T05:33:31;100203.84;;;17.70;100.00
27705;BME280;15109;50.992;6.918;2022-09-09T05:36:54;100209.34;;;17.70;100.00
27705;BME280;15109;50.992;6.918;2022-09-09T05:40:17;100214.31;;;17.68;100.00
27705;BME280;15109;50.992;6.918;2022-09-09T05:43:38;100221.59;;;17.74;100.00
27705;BME280;15109;50.992;6.918;2022-09-09T05:47:00;100222.94;;;17.72;100.00
27705;BME280;15109;50.992;6.918;2022-09-09T05:50:21;100217.63;;;17.82;100.00
27705;BME280;15109;50.992;6.918;2022-09-09T05:53:47;100222.56;;;17.80;100.00
27705;BME280;15109;50.992;6.918;2022-09-09T05:57:08;100216.19;;;17.79;100.00
27705;BME280;15109;50.992;6.918;2022-09-09T06:00:30;100223.75;;;17.84;100.00
27705;BME280;15109;50.992;6.918;2022-09-09T06:03:53;100222.06;;;17.83;100.00
27705;BME280;15109;50.992;6.918;2022-09-09T06:07:16;100219.16;;;17.89;100.00
27705;BME280;15109;50.992;6.918;2022-09-09T06:10:41;100219.00;;;17.96;100.00
27705;BME280;15109;50.992;6.918;2022-09-09T06:14:02;100225.38;;;17.96;100.00
27705;BME280;15109;50.992;6.918;2022-09-09T06:17:25;100225.72;;;18.00;100.00
27705;BME280;15109;50.992;6.918;2022-09-09T06:21:00;100226.22;;;17.97;100.00
27705;BME280;15109;50.992;6.918;2022-09-09T06:24:22;100224.06;;;17.99;100.00
27705;BME280;15109;50.992;6.918;2022-09-09T06:27:48;100235.38;;;17.97;100.00
27705;BME280;15109;50.992;6.918;2022-09-09T06:31:11;100239.31;;;18.01;100.00
27705;BME280;15109;50.992;6.918;2022-09-09T06:34:39;100234.00;;;18.00;100.00
27705;BME280;15109;50.992;6.918;2022-09-09T06:38:01;100231.84;;;18.02;100.00
27705;BME280;15109;50.992;6.918;2022-09-09T06:41:25;100221.53;;;17.97;100.00
27705;BME280;15109;50.992;6.918;2022-09-09T06:44:47;100236.22;;;17.98;100.00
27705;BME280;15109;50.992;6.918;2022-09-09T06:48:18;100232.81;;;18.07;100.00
27705;BME280;15109;50.992;6.918;2022-09-09T06:51:40;100226.97;;;18.21;100.00
27705;BME280;15109;50.992;6.918;2022-09-09T06:55:05;100235.53;;;18.36;100.00
27705;BME280;15109;50.992;6.918;2022-09-09T06:58:28;100227.41;;;18.46;100.00
27705;BME280;15109;50.992;6.918;2022-09-09T07:01:51;100233.13;;;18.56;100.00
27705;BME280;15109;50.992;6.918;2022-09-09T07:05:14;100230.66;;;18.54;100.00
27705;BME280;15109;50.992;6.918;2022-09-09T07:08:37;100231.28;;;18.45;100.00
27705;BME280;15109;50.992;6.918;2022-09-09T07:11:58;100235.72;;;18.46;100.00
27705;BME280;15109;50.992;6.918;2022-09-09T07:15:23;100226.66;;;18.50;100.00
27705;BME280;15109;50.992;6.918;2022-09-09T07:18:44;100239.34;;;18.46;100.00
27705;BME280;15109;50.992;6.918;2022-09-09T07:22:05;100229.69;;;18.49;100.00
27705;BME280;15109;50.992;6.918;2022-09-09T07:25:28;100237.13;;;18.48;100.00
27705;BME280;15109;50.992;6.918;2022-09-09T07:28:52;100234.59;;;18.47;100.00
27705;BME280;15109;50.992;6.918;2022-09-09T07:32:15;100246.50;;;18.59;100.00
27705;BME280;15109;50.992;6.918;2022-09-09T07:35:38;100253.22;;;18.63;100.00
27705;BME280;15109;50.992;6.918;2022-09-09T07:39:02;100258.06;;;18.73;100.00
27705;BME280;15109;50.992;6.918;2022-09-09T07:42:25;100256.84;;;18.80;100.00
27705;BME280;15109;50.992;6.918;2022-09-09T07:45:47;100271.09;;;18.89;100.00
27705;BME280;15109;50.992;6.918;2022-09-09T07:49:09;100270.50;;;18.87;100.00
27705;BME280;15109;50.992;6.918;2022-09-09T07:52:33;100271.53;;;18.97;100.00
27705;BME280;15109;50.992;6.918;2022-09-09T07:56:09;100273.03;;;19.05;100.00
27705;BME280;15109;50.992;6.918;2022-09-09T07:59:34;100277.13;;;19.19;100.00
27705;BME280;15109;50.992;6.918;2022-09-09T08:02:57;100277.97;;;19.20;100.00
27705;BME280;15109;50.992;6.918;2022-09-09T08:06:18;100287.09;;;19.20;100.00
27705;BME280;15109;50.992;6.918;2022-09-09T08:09:39;100282.59;;;19.14;100.00
27705;BME280;15109;50.992;6.918;2022-09-09T08:13:11;100279.38;;;19.22;100.00
27705;BME280;15109;50.992;6.918;2022-09-09T08:16:36;100285.84;;;19.28;100.00
27705;BME280;15109;50.992;6.918;2022-09-09T08:19:57;100284.84;;;19.17;100.00
27705;BME280;15109;50.992;6.918;2022-09-09T08:23:22;100288.97;;;19.15;100.00
27705;BME280;15109;50.992;6.918;2022-09-09T08:26:45;100283.44;;;19.15;100.00
27705;BME280;15109;50.992;6.918;2022-09-09T08:30:10;100274.84;;;19.16;100.00
27705;BME280;15109;50.992;6.918;2022-09-09T08:33:31;100284.16;;;19.27;100.00
27705;BME280;15109;50.992;6.918;2022-09-09T08:36:54;100287.88;;;19.32;100.00
27705;BME280;15109;50.992;6.918;2022-09-09T08:40:27;100280.56;;;19.43;100.00
27705;BME280;15109;50.992;6.918;2022-09-09T08:43:51;100279.88;;;19.53;100.00
27705;BME280;15109;50.992;6.918;2022-09-09T08:50:45;100283.88;;;19.62;100.00
27705;BME280;15109;50.992;6.918;2022-09-09T08:54:13;100288.34;;;19.63;100.00
27705;BME280;15109;50.992;6.918;2022-09-09T08:57:35;100296.66;;;19.63;100.00
27705;BME280;15109;50.992;6.918;2022-09-09T09:04:43;100306.09;;;19.83;100.00
27705;BME280;15109;50.992;6.918;2022-09-09T09:08:18;100300.41;;;19.95;100.00
27705;BME280;15109;50.992;6.918;2022-09-09T09:11:51;100296.47;;;20.13;100.00
27705;BME280;15109;50.992;6.918;2022-09-09T09:15:21;100314.72;;;20.09;100.00
27705;BME280;15109;50.992;6.918;2022-09-09T09:18:45;100311.38;;;20.07;100.00
27705;BME280;15109;50.992;6.918;2022-09-09T09:22:21;100306.03;;;20.00;100.00
27705;BME280;15109;50.992;6.918;2022-09-09T09:25:46;100315.69;;;19.98;100.00
27705;BME280;15109;50.992;6.918;2022-09-09T09:29:12;100312.91;;;19.98;100.00
27705;BME280;15109;50.992;6.918;2022-09-09T09:32:36;100314.50;;;19.88;100.00
27705;BME280;15109;50.992;6.918;2022-09-09T09:36:01;100312.94;;;19.76;100.00
27705;BME280;15109;50.992;6.918;2022-09-09T09:39:30;100307.09;;;19.77;100.00
27705;BME280;15109;50.992;6.918;2022-09-09T09:42:57;100312.84;;;19.71;100.00
27705;BME280;15109;50.992;6.918;2022-09-09T09:46:21;100316.19;;;19.73;100.00
27705;BME280;15109;50.992;6.918;2022-09-09T09:49:56;100320.22;;;19.82;100.00
27705;BME280;15109;50.992;6.918;2022-09-09T09:56:43;100317.81;;;19.90;100.00
27705;BME280;15109;50.992;6.918;2022-09-09T10:03:37;100303.81;;;20.02;100.00
27705;BME280;15109;50.992;6.918;2022-09-09T10:07:10;100317.28;;;20.15;100.00
27705;BME280;15109;50.992;6.918;2022-09-09T10:14:36;100301.97;;;20.29;100.00
27705;BME280;15109;50.992;6.918;2022-09-09T10:33:09;100300.09;;;20.62;100.00
27705;BME280;15109;50.992;6.918;2022-09-09T10:36:30;100295.88;;;20.59;100.00
27705;BME280;15109;50.992;6.918;2022-09-09T10:40:02;100291.28;;;20.70;100.00
27705;BME280;15109;50.992;6.918;2022-09-09T10:55:02;100287.72;;;20.74;100.00
27705;BME280;15109;50.992;6.918;2022-09-09T10:58:42;100286.81;;;21.01;100.00
27705;BME280;15109;50.992;6.918;2022-09-09T11:02:27;100289.47;;;21.17;100.00
27705;BME280;15109;50.992;6.918;2022-09-09T11:05:53;100283.34;;;21.15;100.00
27705;BME280;15109;50.992;6.918;2022-09-09T11:09:21;100275.28;;;21.14;100.00
27705;BME280;15109;50.992;6.918;2022-09-09T11:12:45;100285.34;;;21.25;100.00
27705;BME280;15109;50.992;6.918;2022-09-09T11:19:48;100286.28;;;21.04;100.00
27705;BME280;15109;50.992;6.918;2022-09-09T11:23:17;100278.50;;;21.06;100.00
27705;BME280;15109;50.992;6.918;2022-09-09T11:26:53;100272.59;;;20.97;100.00
27705;BME280;15109;50.992;6.918;2022-09-09T11:30:20;100275.34;;;20.92;100.00
27705;BME280;15109;50.992;6.918;2022-09-09T11:33:51;100273.63;;;20.86;100.00
27705;BME280;15109;50.992;6.918;2022-09-09T11:41:07;100271.59;;;20.76;100.00
27705;BME280;15109;50.992;6.918;2022-09-09T11:44:31;100274.38;;;20.76;100.00
27705;BME280;15109;50.992;6.918;2022-09-09T11:47:57;100276.72;;;20.90;100.00
27705;BME280;15109;50.992;6.918;2022-09-09T11:54:48;100276.22;;;20.98;100.00
27705;BME280;15109;50.992;6.918;2022-09-09T12:01:42;100280.91;;;20.92;100.00
27705;BME280;15109;50.992;6.918;2022-09-09T12:05:10;100270.09;;;20.96;100.00
27705;BME280;15109;50.992;6.918;2022-09-09T12:08:37;100277.25;;;20.87;100.00
27705;BME280;15109;50.992;6.918;2022-09-09T12:12:28;100267.75;;;20.82;100.00
27705;BME280;15109;50.992;6.918;2022-09-09T12:15:50;100263.53;;;20.75;100.00
27705;BME280;15109;50.992;6.918;2022-09-09T12:19:22;100267.38;;;20.69;100.00
27705;BME280;15109;50.992;6.918;2022-09-09T12:23:12;100273.50;;;20.71;100.00
27705;BME280;15109;50.992;6.918;2022-09-09T12:26:47;100273.88;;;20.84;100.00
27705;BME280;15109;50.992;6.918;2022-09-09T12:30:15;100261.47;;;20.97;100.00
27705;BME280;15109;50.992;6.918;2022-09-09T12:33:38;100269.59;;;21.04;100.00
27705;BME280;15109;50.992;6.918;2022-09-09T12:40:56;100267.56;;;20.94;100.00
27705;BME280;15109;50.992;6.918;2022-09-09T12:44:18;100252.19;;;20.81;100.00
27705;BME280;15109;50.992;6.918;2022-09-09T12:47:46;100266.03;;;20.76;100.00
27705;BME280;15109;50.992;6.918;2022-09-09T12:51:28;100253.59;;;20.52;100.00
27705;BME280;15109;50.992;6.918;2022-09-09T12:54:52;100281.69;;;20.56;100.00
27705;BME280;15109;50.992;6.918;2022-09-09T12:58:17;100285.66;;;20.38;100.00
27705;BME280;15109;50.992;6.918;2022-09-09T13:01:38;100280.94;;;20.38;100.00
27705;BME280;15109;50.992;6.918;2022-09-09T13:05:14;100273.59;;;20.54;100.00
27705;BME280;15109;50.992;6.918;2022-09-09T13:08:35;100267.31;;;20.64;100.00
27705;BME280;15109;50.992;6.918;2022-09-09T13:11:57;100261.56;;;20.70;100.00
27705;BME280;15109;50.992;6.918;2022-09-09T13:15:22;100264.94;;;20.77;100.00
27705;BME280;15109;50.992;6.918;2022-09-09T13:18:44;100258.03;;;20.85;100.00
27705;BME280;15109;50.992;6.918;2022-09-09T13:22:13;100257.00;;;20.91;100.00
27705;BME280;15109;50.992;6.918;2022-09-09T13:25:34;100247.22;;;20.89;100.00
27705;BME280;15109;50.992;6.918;2022-09-09T13:29:08;100235.75;;;20.80;100.00
27705;BME280;15109;50.992;6.918;2022-09-09T13:32:29;100243.41;;;20.63;100.00
27705;BME280;15109;50.992;6.918;2022-09-09T13:36:05;100241.94;;;20.55;100.00
27705;BME280;15109;50.992;6.918;2022-09-09T13:39:27;100239.75;;;20.57;100.00
27705;BME280;15109;50.992;6.918;2022-09-09T13:42:55;100231.72;;;20.61;100.00
27705;BME280;15109;50.992;6.918;2022-09-09T13:46:40;100229.50;;;20.63;100.00
27705;BME280;15109;50.992;6.918;2022-09-09T13:53:45;100219.19;;;20.90;100.00
27705;BME280;15109;50.992;6.918;2022-09-09T13:57:20;100222.38;;;21.09;100.00
27705;BME280;15109;50.992;6.918;2022-09-09T14:00:42;100216.78;;;21.04;100.00
27705;BME280;15109;50.992;6.918;2022-09-09T14:04:05;100214.81;;;20.99;100.00
27705;BME280;15109;50.992;6.918;2022-09-09T14:07:29;100212.56;;;20.96;100.00
27705;BME280;15109;50.992;6.918;2022-09-09T14:10:50;100215.25;;;20.86;100.00
27705;BME280;15109;50.992;6.918;2022-09-09T14:14:13;100222.00;;;20.63;100.00
27705;BME280;15109;50.992;6.918;2022-09-09T14:17:34;100238.88;;;20.52;100.00
27705;BME280;15109;50.992;6.918;2022-09-09T14:20:57;100252.41;;;20.21;100.00
27705;BME280;15109;50.992;6.918;2022-09-09T14:24:19;100251.94;;;19.42;100.00
27705;BME280;15109;50.992;6.918;2022-09-09T14:27:40;100251.97;;;18.71;100.00
27705;BME280;15109;50.992;6.918;2022-09-09T14:31:03;100233.22;;;18.61;100.00
27705;BME280;15109;50.992;6.918;2022-09-09T14:34:24;100225.97;;;18.43;100.00
27705;BME280;15109;50.992;6.918;2022-09-09T14:37:45;100226.47;;;18.40;100.00
27705;BME280;15109;50.992;6.918;2022-09-09T14:41:12;100215.06;;;18.37;100.00
27705;BME280;15109;50.992;6.918;2022-09-09T14:44:33;100213.56;;;18.01;100.00
27705;BME280;15109;50.992;6.918;2022-09-09T14:47:55;100204.75;;;18.04;100.00
27705;BME280;15109;50.992;6.918;2022-09-09T14:51:19;100209.72;;;18.02;100.00
27705;BME280;15109;50.992;6.918;2022-09-09T14:54:40;100217.84;;;18.08;100.00
27705;BME280;15109;50.992;6.918;2022-09-09T14:58:01;100216.72;;;18.21;100.00
27705;BME280;15109;50.992;6.918;2022-09-09T15:01:23;100218.41;;;18.39;100.00
27705;BME280;15109;50.992;6.918;2022-09-09T15:04:46;100227.38;;;18.57;100.00
27705;BME280;15109;50.992;6.918;2022-09-09T15:08:07;100219.63;;;18.59;100.00
27705;BME280;15109;50.992;6.918;2022-09-09T15:11:33;100225.00;;;18.66;100.00
27705;BME280;15109;50.992;6.918;2022-09-09T15:14:58;100220.22;;;18.78;100.00
27705;BME280;15109;50.992;6.918;2022-09-09T15:18:20;100228.38;;;18.85;100.00
27705;BME280;15109;50.992;6.918;2022-09-09T15:21:41;100224.91;;;18.94;100.00
27705;BME280;15109;50.992;6.918;2022-09-09T15:25:02;100214.50;;;19.01;100.00
27705;BME280;15109;50.992;6.918;2022-09-09T15:28:23;100239.00;;;19.10;100.00
27705;BME280;15109;50.992;6.918;2022-09-09T15:31:44;100219.53;;;19.04;100.00
27705;BME280;15109;50.992;6.918;2022-09-09T15:35:06;100221.22;;;19.06;100.00
27705;BME280;15109;50.992;6.918;2022-09-09T15:38:27;100215.78;;;19.32;100.00
27705;BME280;15109;50.992;6.918;2022-09-09T15:41:51;100219.56;;;19.43;100.00
27705;BME280;15109;50.992;6.918;2022-09-09T15:45:12;100212.78;;;19.56;100.00
27705;BME280;15109;50.992;6.918;2022-09-09T15:48:33;100219.69;;;19.53;100.00
27705;BME280;15109;50.992;6.918;2022-09-09T15:51:59;100225.69;;;19.45;100.00
27705;BME280;15109;50.992;6.918;2022-09-09T15:55:23;100220.28;;;19.38;100.00
27705;BME280;15109;50.992;6.918;2022-09-09T15:58:47;100223.66;;;19.40;100.00
27705;BME280;15109;50.992;6.918;2022-09-09T16:02:09;100242.22;;;19.40;100.00
27705;BME280;15109;50.992;6.918;2022-09-09T16:05:30;100233.00;;;19.34;100.00
27705;BME280;15109;50.992;6.918;2022-09-09T16:08:52;100236.97;;;19.22;100.00
27705;BME280;15109;50.992;6.918;2022-09-09T16:12:14;100245.13;;;19.12;100.00
27705;BME280;15109;50.992;6.918;2022-09-09T16:15:35;100263.00;;;19.21;100.00
27705;BME280;15109;50.992;6.918;2022-09-09T16:19:03;100255.31;;;19.06;100.00
27705;BME280;15109;50.992;6.918;2022-09-09T16:22:24;100256.06;;;19.01;100.00
27705;BME280;15109;50.992;6.918;2022-09-09T16:25:55;100258.50;;;18.98;100.00
27705;BME280;15109;50.992;6.918;2022-09-09T16:29:18;100268.00;;;18.85;100.00
27705;BME280;15109;50.992;6.918;2022-09-09T16:32:39;100258.75;;;18.80;100.00
27705;BME280;15109;50.992;6.918;2022-09-09T16:36:12;100253.75;;;18.77;100.00
27705;BME280;15109;50.992;6.918;2022-09-09T16:39:34;100252.06;;;18.76;100.00
27705;BME280;15109;50.992;6.918;2022-09-09T16:42:55;100257.69;;;18.81;100.00
27705;BME280;15109;50.992;6.918;2022-09-09T16:46:18;100253.75;;;18.77;100.00
27705;BME280;15109;50.992;6.918;2022-09-09T16:49:40;100253.47;;;18.78;100.00
27705;BME280;15109;50.992;6.918;2022-09-09T16:53:01;100257.31;;;18.77;100.00
27705;BME280;15109;50.992;6.918;2022-09-09T16:56:28;100261.03;;;18.83;100.00
27705;BME280;15109;50.992;6.918;2022-09-09T16:59:50;100268.44;;;18.94;100.00
27705;BME280;15109;50.992;6.918;2022-09-09T17:03:14;100262.88;;;18.94;100.00
27705;BME280;15109;50.992;6.918;2022-09-09T17:06:37;100272.44;;;18.86;100.00
27705;BME280;15109;50.992;6.918;2022-09-09T17:09:58;100274.13;;;18.87;100.00
27705;BME280;15109;50.992;6.918;2022-09-09T17:13:19;100270.59;;;18.92;100.00
27705;BME280;15109;50.992;6.918;2022-09-09T17:16:40;100275.91;;;18.93;100.00
27705;BME280;15109;50.992;6.918;2022-09-09T17:20:02;100277.22;;;18.91;100.00
27705;BME280;15109;50.992;6.918;2022-09-09T17:23:24;100291.34;;;18.89;100.00
27705;BME280;15109;50.992;6.918;2022-09-09T17:26:45;100297.13;;;18.88;100.00
27705;BME280;15109;50.992;6.918;2022-09-09T17:30:06;100287.63;;;18.84;100.00
27705;BME280;15109;50.992;6.918;2022-09-09T17:33:28;100290.41;;;18.84;100.00
27705;BME280;15109;50.992;6.918;2022-09-09T17:36:53;100285.28;;;18.76;100.00
27705;BME280;15109;50.992;6.918;2022-09-09T17:40:14;100289.13;;;18.75;100.00
27705;BME280;15109;50.992;6.918;2022-09-09T17:43:36;100299.56;;;18.68;100.00
27705;BME280;15109;50.992;6.918;2022-09-09T17:46:58;100300.97;;;18.70;100.00
27705;BME280;15109;50.992;6.918;2022-09-09T17:50:20;100298.38;;;18.64;100.00
27705;BME280;15109;50.992;6.918;2022-09-09T17:53:43;100305.22;;;18.61;100.00
27705;BME280;15109;50.992;6.918;2022-09-09T17:57:05;100302.22;;;18.63;100.00
27705;BME280;15109;50.992;6.918;2022-09-09T18:00:27;100318.97;;;18.56;100.00
27705;BME280;15109;50.992;6.918;2022-09-09T18:03:50;100326.22;;;18.57;100.00
27705;BME280;15109;50.992;6.918;2022-09-09T18:07:11;100325.63;;;18.55;100.00
27705;BME280;15109;50.992;6.918;2022-09-09T18:10:33;100323.47;;;18.45;100.00
27705;BME280;15109;50.992;6.918;2022-09-09T18:13:57;100340.97;;;18.34;100.00
27705;BME280;15109;50.992;6.918;2022-09-09T18:17:20;100336.53;;;18.33;100.00
27705;BME280;15109;50.992;6.918;2022-09-09T18:20:41;100339.03;;;18.35;100.00
27705;BME280;15109;50.992;6.918;2022-09-09T18:24:05;100343.50;;;18.36;100.00
27705;BME280;15109;50.992;6.918;2022-09-09T18:27:26;100337.44;;;18.39;100.00
27705;BME280;15109;50.992;6.918;2022-09-09T18:30:52;100328.56;;;18.37;100.00
27705;BME280;15109;50.992;6.918;2022-09-09T18:34:14;100334.75;;;18.27;100.00
27705;BME280;15109;50.992;6.918;2022-09-09T18:37:36;100323.06;;;18.25;100.00
27705;BME280;15109;50.992;6.918;2022-09-09T18:40:57;100319.72;;;18.23;100.00
27705;BME280;15109;50.992;6.918;2022-09-09T18:44:24;100331.53;;;18.19;100.00
27705;BME280;15109;50.992;6.918;2022-09-09T18:47:47;100330.91;;;18.17;100.00
27705;BME280;15109;50.992;6.918;2022-09-09T18:51:12;100328.06;;;18.11;100.00
27705;BME280;15109;50.992;6.918;2022-09-09T18:54:33;100340.59;;;18.02;100.00
27705;BME280;15109;50.992;6.918;2022-09-09T18:57:55;100341.78;;;18.06;100.00
27705;BME280;15109;50.992;6.918;2022-09-09T19:01:18;100341.34;;;17.98;100.00
27705;BME280;15109;50.992;6.918;2022-09-09T19:04:42;100351.06;;;18.00;100.00
27705;BME280;15109;50.992;6.918;2022-09-09T19:08:03;100347.59;;;17.93;100.00
27705;BME280;15109;50.992;6.918;2022-09-09T19:11:26;100344.94;;;17.87;100.00
27705;BME280;15109;50.992;6.918;2022-09-09T19:14:47;100342.19;;;17.87;100.00